Main page
METAR-TAF:

METAR-TAF

Airports :

Gatwick Airport

London-Gatwick, England

latitude: 51-09N, longitude: 000-11W, elevation: 62 m

Current weather observation

The report was made 16 minutes ago, at 05:20 UTC
Wind 12 kt from the West/Northwest
Temperature 6°C
Humidity 75%
Pressure 1020 hPa
Visibility 10 km or more
no clouds below 1500 m and no cumulonimbus

METAR: EGKK 170520Z 29012KT CAVOK 06/02 Q1020

Time: 05:36 (05:36 UTC)

Forecast

The report was made 6 hours and 23 minutes ago, at 23:13 UTC
Forecast valid from 17 at 00 UTC to 18 at 06 UTC
Wind 7 kt from the West/Northwest
Visibility 10 km or more
Scattered clouds at a height of 3500 ft
Probability 30% :
Temporary
from 17 at 05 UTC to 17 at 08 UTC
Visibility: 8000 m
Broken clouds at a height of 1400 ft
light rain showers
Probability 30%
from 17 at 21 UTC to 18 at 06 UTC
Visibility: 6000 m

TAF: EGKK 162313Z 1700/1806 29007KT 9999 SCT035 PROB30 TEMPO 1705/1708 8000 -SHRA BKN014 PROB30 1721/1806 6000

Weather observations and forecasts of more than 4000 airports (METAR and TAF reports).

The available stations are represented by yellow and red dots on the map.

Hover mouse over dot to see the name of the station.

Then click to see weather observations and forecasts.

To change the map : click on the green buttons with a black cross to zoom in, on the green button with a dash to zoom out, or on the green arrows for adjacent maps.


METAR-TAF: